Disclaimer

Please do not use the information listed here in-flight or in-navigation, as they are not provided to us by the airports but are provided by volunteers, so they might be outdated.

Search


Regions


Airport information page

Radio informations:
Aerodrome flight information system (AFIS) - 119.525 MHz

Airport informations:
Latitude: 55° 28' 35.99" N
Longitude: 010° 19' 51.36" E
Elevation: 56 feet - 17 meters
Operating hours: Remarks
Operating agency: Civil government, landing fees and diplomatic clearance may be required
Timezone: UTC+1(+2DT) - Last Sunday in March to last Sunday in October
Fuel: Jet A1, without icing nhibitor.

100/130 MIL Spec, low lead, aviation gasoline (BLUE)

Runway information:
06/24 - 6053 x 148 feet< - >1845 x 45 meters
13/31 - 2280 x 98 feet< - >695 x 30 meters

Recent METARs:
EKOD 170750Z 12005KT 100V160 9999 OVC016 05/03 Q1040
EKOD 170820Z 13009KT 9999 FEW016 05/04 Q1040
EKOD 170850Z 12005KT 9999 FEW016 05/04 Q1040

Airport on the map: